Time;durP1;ratioP1;P1;durP2;ratioP2;P2;SDS_P1;SDS_P2;PMS_P1;PMS_P2;Temp;Humidity;BMP_temperature;BMP_pressure;BME280_temperature;BME280_humidity;BME280_pressure;Samples;Min_cycle;Max_cycle;Signal;HPM_P1;HPM_P2
2022/04/18 00:00:19;;;;;;;9.30;2.58;;;18.70;47.20;;;;;;4299321;33;20195;-70
2022/04/18 00:02:45;;;;;;;7.45;2.80;;;18.70;47.20;;;;;;4314669;33;20223;-70
2022/04/18 00:05:11;;;;;;;6.07;2.38;;;18.70;47.20;;;;;;4314509;33;20184;-70
2022/04/18 00:07:36;;;;;;;5.50;2.45;;;18.70;47.20;;;;;;4314733;33;20139;-70
2022/04/18 00:10:03;;;;;;;6.32;2.65;;;18.70;47.20;;;;;;4314651;33;20484;-70
2022/04/18 00:12:30;;;;;;;8.50;3.03;;;18.70;47.20;;;;;;4315207;33;20218;-70
2022/04/18 00:14:56;;;;;;;8.13;2.55;;;18.70;47.20;;;;;;4314628;33;20081;-70
2022/04/18 00:17:22;;;;;;;6.28;2.58;;;18.70;47.20;;;;;;4314712;33;20096;-70
2022/04/18 00:19:48;;;;;;;7.03;2.70;;;18.70;47.20;;;;;;4314348;33;20077;-70
2022/04/18 00:22:14;;;;;;;6.00;2.30;;;18.60;47.20;;;;;;4314510;33;20138;-70
2022/04/18 00:24:39;;;;;;;6.10;2.72;;;18.70;47.20;;;;;;4314545;33;20207;-70
2022/04/18 00:27:06;;;;;;;5.68;2.42;;;18.70;47.20;;;;;;4314305;33;20867;-71
2022/04/18 00:29:32;;;;;;;5.90;2.75;;;18.70;47.20;;;;;;4314560;33;20073;-70
2022/04/18 00:31:58;;;;;;;6.65;2.25;;;18.60;47.10;;;;;;4301131;33;20529;-70
2022/04/18 00:34:23;;;;;;;5.75;2.60;;;18.60;47.10;;;;;;4314810;33;20076;-70
2022/04/18 00:36:49;;;;;;;3.97;2.40;;;18.60;47.20;;;;;;4314224;33;20414;-70
2022/04/18 00:39:15;;;;;;;6.45;2.50;;;18.60;47.10;;;;;;4314697;33;20081;-70
2022/04/18 00:41:41;;;;;;;5.57;2.28;;;18.60;47.10;;;;;;4314304;33;20169;-70
2022/04/18 00:44:07;;;;;;;7.43;2.50;;;18.60;47.10;;;;;;4314449;33;20077;-70
2022/04/18 00:46:33;;;;;;;5.13;2.70;;;18.60;47.10;;;;;;4314135;33;20633;-69
2022/04/18 00:48:58;;;;;;;6.72;2.53;;;18.60;47.10;;;;;;4314637;33;20080;-70
2022/04/18 00:51:26;;;;;;;8.23;2.47;;;18.60;47.10;;;;;;4314390;33;20250;-70
2022/04/18 00:53:53;;;;;;;8.35;2.83;;;18.60;47.10;;;;;;4314351;33;20091;-70
2022/04/18 00:56:20;;;;;;;5.53;2.88;;;18.50;47.10;;;;;;4314368;33;20096;-70
2022/04/18 00:58:47;;;;;;;5.85;2.35;;;18.50;47.10;;;;;;4314040;33;20085;-70
2022/04/18 01:01:14;;;;;;;4.65;2.08;;;18.60;47.20;;;;;;4314248;33;20430;-70
2022/04/18 01:03:40;;;;;;;5.22;2.40;;;18.50;47.10;;;;;;4314275;33;20069;-70
2022/04/18 01:06:06;;;;;;;6.00;2.53;;;18.60;47.10;;;;;;4314294;33;20491;-70
2022/04/18 01:08:37;;;;;;;5.55;2.97;;;18.50;47.10;;;;;;4314216;33;20084;-70
2022/04/18 01:11:05;;;;;;;5.32;2.47;;;18.50;47.10;;;;;;4313159;33;20423;-70
2022/04/18 01:13:46;;;;;;;5.38;2.40;;;18.50;47.10;;;;;;4311767;33;20526;-70
2022/04/18 01:16:12;;;;;;;5.78;2.63;;;18.50;47.10;;;;;;4312090;33;20411;-70
2022/04/18 01:18:39;;;;;;;5.63;2.42;;;18.50;47.10;;;;;;4311850;33;20095;-70
2022/04/18 01:21:06;;;;;;;4.97;2.50;;;18.50;47.10;;;;;;4311865;33;20201;-70
2022/04/18 01:23:32;;;;;;;6.85;2.40;;;18.50;47.10;;;;;;4311825;33;20080;-70
2022/04/18 01:28:58;;;;;;;4.28;2.45;;;18.50;47.10;;;;;;4311853;33;20089;-70
2022/04/18 01:31:29;;;;;;;7.22;2.78;;;18.50;47.10;;;;;;4311947;33;20138;-70
2022/04/18 01:33:56;;;;;;;5.38;2.58;;;18.40;47.10;;;;;;4323086;33;20146;-70
2022/04/18 01:36:23;;;;;;;5.82;3.10;;;18.40;47.10;;;;;;4326225;33;20500;-69
2022/04/18 01:38:48;;;;;;;4.53;2.33;;;18.40;47.10;;;;;;4325866;33;20091;-70
2022/04/18 01:41:14;;;;;;;7.40;2.95;;;18.40;47.10;;;;;;4326053;33;20140;-70
2022/04/18 01:43:40;;;;;;;4.65;2.33;;;18.40;47.10;;;;;;4326334;33;20280;-70
2022/04/18 01:46:06;;;;;;;3.55;2.17;;;18.40;47.10;;;;;;4326090;33;20503;-70
2022/04/18 01:48:32;;;;;;;7.47;2.47;;;18.40;47.10;;;;;;4312793;33;20491;-70
2022/04/18 01:50:58;;;;;;;4.28;2.20;;;18.40;47.10;;;;;;4326186;33;20093;-69
2022/04/18 01:53:24;;;;;;;5.80;2.53;;;18.40;47.10;;;;;;4325695;33;20073;-70
2022/04/18 01:55:49;;;;;;;3.50;2.33;;;18.40;47.10;;;;;;4326134;33;20077;-70
2022/04/18 01:58:15;;;;;;;6.05;2.92;;;18.40;47.10;;;;;;4325946;33;20356;-70
2022/04/18 02:00:41;;;;;;;6.10;2.50;;;18.40;47.10;;;;;;4328334;33;20061;-69
2022/04/18 02:03:07;;;;;;;4.60;2.40;;;18.40;47.10;;;;;;4340611;33;20175;-70
2022/04/18 02:05:33;;;;;;;4.53;2.50;;;18.30;47.00;;;;;;4340536;33;20464;-70
2022/04/18 02:07:59;;;;;;;5.28;2.33;;;18.40;47.10;;;;;;4327309;33;20080;-70
2022/04/18 02:10:25;;;;;;;4.05;2.42;;;18.40;47.10;;;;;;4340423;33;20115;-70
2022/04/18 02:12:51;;;;;;;4.15;2.47;;;18.40;47.10;;;;;;4340154;33;20399;-70
2022/04/18 02:15:17;;;;;;;4.43;2.40;;;18.30;47.00;;;;;;4340389;33;20072;-70
2022/04/18 02:17:43;;;;;;;3.42;1.95;;;18.30;47.00;;;;;;4326784;33;20158;-70
2022/04/18 02:20:09;;;;;;;4.82;2.67;;;18.30;47.00;;;;;;4340313;33;20076;-70
2022/04/18 02:22:35;;;;;;;5.20;2.67;;;18.30;47.10;;;;;;4326620;33;20112;-70
2022/04/18 02:25:01;;;;;;;4.95;2.90;;;18.30;47.00;;;;;;4340273;33;20506;-70
2022/04/18 02:27:26;;;;;;;3.33;2.33;;;18.30;47.00;;;;;;4340001;33;20089;-70
2022/04/18 02:29:53;;;;;;;3.63;2.25;;;18.30;47.00;;;;;;4340500;33;20120;-70
2022/04/18 02:35:04;;;;;;;5.13;2.88;;;18.30;47.00;;;;;;4340406;33;20159;-70
2022/04/18 02:37:30;;;;;;;4.30;2.50;;;18.30;47.00;;;;;;4340235;33;20187;-70
2022/04/18 02:39:59;;;;;;;3.70;2.42;;;18.30;47.00;;;;;;4339906;33;20487;-70
2022/04/18 02:42:25;;;;;;;4.05;2.40;;;18.20;47.00;;;;;;4340116;33;20104;-70
2022/04/18 02:44:51;;;;;;;4.13;2.70;;;18.30;47.10;;;;;;4328648;33;20823;-70
2022/04/18 02:47:16;;;;;;;4.57;2.25;;;18.20;47.00;;;;;;4325968;33;20065;-70
2022/04/18 02:49:42;;;;;;;4.80;2.55;;;18.20;47.00;;;;;;4323920;33;20507;-70
2022/04/18 02:52:08;;;;;;;4.18;2.47;;;18.20;47.00;;;;;;4325429;33;20499;-70
2022/04/18 02:54:34;;;;;;;4.65;2.53;;;18.20;47.00;;;;;;4324438;33;20157;-70
2022/04/18 02:57:00;;;;;;;4.50;2.20;;;18.20;47.00;;;;;;4311017;33;20068;-70
2022/04/18 02:59:25;;;;;;;3.92;2.42;;;18.20;47.00;;;;;;4324393;33;20095;-70
2022/04/18 03:01:51;;;;;;;3.15;2.20;;;18.20;47.00;;;;;;4320731;33;20132;-70
2022/04/18 03:04:17;;;;;;;3.53;2.28;;;18.20;47.00;;;;;;4309880;33;20077;-70
2022/04/18 03:06:43;;;;;;;3.72;2.53;;;18.20;47.10;;;;;;4309789;33;20077;-70
2022/04/18 03:09:09;;;;;;;4.90;2.60;;;18.10;47.00;;;;;;4313072;33;20534;-70
2022/04/18 03:11:35;;;;;;;3.83;2.60;;;18.10;47.00;;;;;;4309380;33;20124;-70
2022/04/18 03:14:00;;;;;;;4.55;2.72;;;18.10;47.00;;;;;;4309260;33;20528;-70
2022/04/18 03:16:26;;;;;;;5.88;2.42;;;18.10;47.00;;;;;;4309149;33;20510;-70
2022/04/18 03:18:52;;;;;;;3.70;2.33;;;18.10;47.00;;;;;;4310561;33;20077;-70
2022/04/18 03:21:18;;;;;;;3.97;2.40;;;18.10;47.00;;;;;;4309224;33;20093;-70
2022/04/18 03:23:44;;;;;;;5.95;2.78;;;18.10;47.00;;;;;;4309007;33;20686;-70
2022/04/18 03:26:11;;;;;;;4.32;2.75;;;18.10;47.00;;;;;;4309040;33;20093;-70
2022/04/18 03:28:36;;;;;;;4.03;2.50;;;18.10;47.10;;;;;;4308525;33;20211;-70
2022/04/18 03:31:03;;;;;;;4.38;2.25;;;18.10;47.10;;;;;;4309840;33;20077;-71
2022/04/18 03:33:29;;;;;;;4.18;2.67;;;18.10;47.10;;;;;;4308812;33;20177;-70
2022/04/18 03:41:24;;;;;;;5.05;2.63;;;18.00;47.00;;;;;;4308870;33;20092;-70
2022/04/18 03:43:51;;;;;;;3.88;2.50;;;18.10;47.10;;;;;;4310162;33;20093;-70
2022/04/18 03:46:17;;;;;;;4.30;2.42;;;18.10;47.10;;;;;;4309141;33;20303;-70
2022/04/18 03:48:43;;;;;;;4.13;2.60;;;18.10;47.10;;;;;;4308857;33;20239;-70
2022/04/18 03:51:09;;;;;;;4.43;2.30;;;18.00;47.00;;;;;;4308706;33;20089;-70
2022/04/18 03:53:35;;;;;;;4.05;2.60;;;18.10;47.20;;;;;;4308694;33;20109;-70
2022/04/18 03:56:01;;;;;;;4.43;2.83;;;18.00;47.10;;;;;;4310620;33;20087;-70
2022/04/18 03:58:26;;;;;;;4.50;2.60;;;18.00;47.10;;;;;;4308346;33;20141;-70
2022/04/18 04:00:52;;;;;;;3.25;2.10;;;18.00;47.10;;;;;;4308687;33;20075;-70
2022/04/18 04:03:18;;;;;;;4.53;2.72;;;18.00;47.10;;;;;;4309685;33;20480;-70
2022/04/18 04:05:44;;;;;;;4.57;2.35;;;18.00;47.10;;;;;;4309787;33;20089;-70
2022/04/18 04:08:09;;;;;;;4.38;2.33;;;18.00;47.10;;;;;;4308960;33;20515;-70
2022/04/18 04:10:35;;;;;;;2.83;2.35;;;18.00;47.10;;;;;;4296614;33;20225;-70
2022/04/18 04:13:02;;;;;;;4.18;2.92;;;18.00;47.10;;;;;;4310032;33;20129;-70
2022/04/18 04:15:28;;;;;;;3.42;2.30;;;18.00;47.10;;;;;;4309500;33;20508;-70
2022/04/18 04:17:53;;;;;;;3.63;2.42;;;18.00;47.20;;;;;;4309731;33;20105;-70
2022/04/18 04:20:21;;;;;;;5.05;2.78;;;18.00;47.10;;;;;;4309916;33;20073;-70
2022/04/18 04:22:48;;;;;;;4.15;2.53;;;18.00;47.20;;;;;;4309785;33;20423;-70
2022/04/18 04:25:15;;;;;;;5.55;2.65;;;17.90;47.20;;;;;;4309649;33;20086;-70
2022/04/18 04:27:41;;;;;;;5.18;2.75;;;17.90;47.20;;;;;;4296223;33;20139;-70
2022/04/18 04:30:07;;;;;;;4.47;2.50;;;17.90;47.20;;;;;;4309666;33;20061;-70
2022/04/18 04:32:34;;;;;;;4.20;2.50;;;17.90;47.20;;;;;;4309863;33;20104;-70
2022/04/18 04:35:00;;;;;;;4.93;2.65;;;17.90;47.20;;;;;;4309839;33;20701;-70
2022/04/18 04:37:26;;;;;;;5.28;2.75;;;17.90;47.20;;;;;;4309319;33;20097;-70
2022/04/18 04:39:51;;;;;;;3.38;2.35;;;17.90;47.20;;;;;;4296534;33;20070;-70
2022/04/18 04:42:19;;;;;;;5.50;2.38;;;17.90;47.20;;;;;;4309703;33;20492;-70
2022/04/18 04:44:45;;;;;;;3.45;2.50;;;17.90;47.20;;;;;;4309705;33;20104;-70
2022/04/18 04:47:11;;;;;;;3.10;2.45;;;17.90;47.20;;;;;;4311662;33;20215;-70
2022/04/18 04:49:38;;;;;;;4.18;2.78;;;17.90;47.20;;;;;;4312275;33;20288;-70
2022/04/18 04:52:05;;;;;;;4.63;3.10;;;17.90;47.20;;;;;;4312594;33;20077;-70
2022/04/18 04:54:34;;;;;;;4.25;2.35;;;17.90;47.20;;;;;;4312286;33;20069;-69
2022/04/18 04:57:01;;;;;;;3.45;2.58;;;17.80;47.20;;;;;;4312224;33;20073;-70
2022/04/18 04:59:26;;;;;;;4.30;2.55;;;17.80;47.20;;;;;;4310711;33;20135;-70
2022/04/18 05:01:52;;;;;;;4.40;2.60;;;17.80;47.20;;;;;;4311860;33;20081;-70
2022/04/18 05:04:18;;;;;;;3.97;2.50;;;17.80;47.20;;;;;;4312037;33;20496;-70
2022/04/18 05:06:44;;;;;;;3.67;2.60;;;17.80;47.20;;;;;;4312070;33;20496;-70
2022/04/18 05:09:10;;;;;;;5.75;2.58;;;17.80;48.10;;;;;;4311792;33;20508;-70
2022/04/18 05:11:36;;;;;;;2.65;2.38;;;17.80;47.20;;;;;;4311685;33;20169;-70
2022/04/18 05:14:02;;;;;;;3.85;2.70;;;17.80;47.10;;;;;;4312193;33;20096;-70
2022/04/18 05:16:29;;;;;;;3.75;2.33;;;17.80;47.20;;;;;;4312182;33;20523;-70
2022/04/18 05:18:54;;;;;;;2.75;2.30;;;17.80;47.20;;;;;;4311918;33;20227;-70
2022/04/18 05:21:20;;;;;;;4.32;2.50;;;17.80;47.20;;;;;;4311793;33;20419;-70
2022/04/18 05:23:48;;;;;;;3.97;2.55;;;17.80;47.20;;;;;;4298598;33;20423;-70
2022/04/18 05:26:13;;;;;;;3.58;2.70;;;17.80;47.20;;;;;;4298740;33;20239;-70
2022/04/18 05:28:41;;;;;;;3.60;2.63;;;17.80;47.20;;;;;;4298294;33;20141;-70
2022/04/18 05:31:07;;;;;;;3.83;2.40;;;17.80;47.20;;;;;;4311883;33;20077;-70
2022/04/18 05:33:34;;;;;;;3.60;2.63;;;17.80;47.20;;;;;;4311782;33;20085;-70
2022/04/18 05:36:00;;;;;;;3.58;2.33;;;17.70;47.10;;;;;;4311721;33;20083;-69
2022/04/18 05:38:26;;;;;;;3.92;2.47;;;17.70;47.20;;;;;;4310467;33;20246;-70
2022/04/18 05:40:51;;;;;;;3.33;2.28;;;17.70;47.20;;;;;;4311307;33;20077;-69
2022/04/18 05:43:17;;;;;;;3.90;2.50;;;17.70;47.20;;;;;;4311858;33;20227;-70
2022/04/18 05:45:43;;;;;;;4.13;2.65;;;17.70;47.20;;;;;;4310450;33;20073;-69
2022/04/18 05:48:09;;;;;;;3.35;2.33;;;17.70;47.20;;;;;;4298393;33;20227;-69
2022/04/18 05:50:35;;;;;;;3.33;2.35;;;17.70;47.20;;;;;;4311200;33;20077;-70
2022/04/18 05:53:01;;;;;;;5.43;2.95;;;17.70;47.20;;;;;;4311615;33;20080;-70
2022/04/18 05:55:27;;;;;;;3.50;2.38;;;17.70;47.30;;;;;;4311371;33;20093;-71
2022/04/18 05:57:53;;;;;;;4.22;2.55;;;17.70;47.20;;;;;;4310330;33;20192;-70
2022/04/18 06:00:20;;;;;;;4.35;2.58;;;17.70;47.30;;;;;;4311516;33;20511;-70
2022/04/18 06:02:45;;;;;;;3.95;2.67;;;17.70;47.30;;;;;;4310949;33;20567;-70
2022/04/18 06:05:11;;;;;;;4.15;2.42;;;17.70;47.30;;;;;;4311293;33;20128;-70
2022/04/18 06:07:42;;;;;;;2.38;1.80;;;17.70;47.30;;;;;;4298172;33;20257;-70
2022/04/18 06:10:09;;;;;;;4.38;2.45;;;17.70;47.30;;;;;;4310243;33;20081;-70
2022/04/18 06:12:34;;;;;;;4.22;2.65;;;17.70;47.30;;;;;;4310052;33;20101;-70
2022/04/18 06:15:00;;;;;;;3.85;2.40;;;17.70;47.30;;;;;;4311306;33;20404;-70
2022/04/18 06:17:26;;;;;;;3.50;2.55;;;17.70;47.30;;;;;;4310873;33;20516;-70
2022/04/18 06:19:52;;;;;;;4.28;2.30;;;17.70;47.30;;;;;;4310054;33;20057;-70
2022/04/18 06:22:18;;;;;;;3.38;2.50;;;17.70;47.40;;;;;;4311118;33;20073;-70
2022/04/18 06:24:44;;;;;;;4.38;2.53;;;17.80;47.50;;;;;;4309915;33;20065;-70
2022/04/18 06:27:09;;;;;;;4.30;2.50;;;17.70;47.50;;;;;;4310026;33;20088;-70
2022/04/18 06:29:35;;;;;;;3.88;2.40;;;17.80;47.50;;;;;;4309506;33;20180;-70
2022/04/18 06:32:01;;;;;;;3.60;2.25;;;17.80;47.50;;;;;;4309897;33;20088;-70
2022/04/18 06:34:30;;;;;;;3.35;2.30;;;17.80;47.50;;;;;;4310914;33;20073;-70
2022/04/18 06:36:56;;;;;;;3.97;2.33;;;17.80;47.60;;;;;;4310894;33;20133;-70
2022/04/18 06:39:22;;;;;;;4.10;2.53;;;17.80;47.50;;;;;;4311146;33;20522;-70
2022/04/18 06:41:48;;;;;;;3.13;2.00;;;17.80;47.50;;;;;;4310436;33;20209;-70
2022/04/18 06:44:14;;;;;;;3.25;2.22;;;17.80;47.50;;;;;;4309999;33;20069;-70
2022/04/18 06:46:40;;;;;;;3.75;2.50;;;17.80;47.50;;;;;;4311218;33;20091;-70
2022/04/18 06:49:06;;;;;;;2.78;2.35;;;17.80;47.50;;;;;;4310389;33;20121;-70
2022/04/18 06:51:31;;;;;;;3.55;2.13;;;17.80;47.50;;;;;;4310719;33;20077;-70
2022/04/18 06:53:57;;;;;;;3.28;2.40;;;17.80;47.50;;;;;;4310771;33;20077;-70
2022/04/18 06:59:08;;;;;;;4.03;2.38;;;17.90;47.60;;;;;;4309278;33;20518;-69
2022/04/18 07:01:34;;;;;;;3.80;2.70;;;17.90;47.60;;;;;;4312707;33;20081;-70
2022/04/18 07:04:00;;;;;;;4.47;3.30;;;17.90;47.60;;;;;;4325011;33;20545;-70
2022/04/18 07:06:26;;;;;;;5.88;3.40;;;17.90;47.30;;;;;;4325169;33;20116;-70
2022/04/18 07:08:52;;;;;;;5.45;3.28;;;18.00;47.10;;;;;;4324556;33;20406;-69
2022/04/18 07:11:18;;;;;;;5.07;4.00;;;18.00;47.00;;;;;;4323842;33;20061;-70
2022/04/18 07:13:44;;;;;;;8.52;4.22;;;18.00;46.80;;;;;;4325067;33;20215;-69
2022/04/18 07:16:10;;;;;;;8.05;4.72;;;18.10;46.70;;;;;;4311634;33;20499;-69
2022/04/18 07:18:35;;;;;;;8.50;4.95;;;18.10;46.50;;;;;;4324749;33;20120;-70
2022/04/18 07:21:04;;;;;;;5.90;4.35;;;18.10;46.40;;;;;;4311333;33;20065;-69
2022/04/18 07:23:30;;;;;;;6.15;4.80;;;18.10;46.30;;;;;;4324936;33;20091;-70
2022/04/18 07:25:56;;;;;;;6.70;4.45;;;18.10;46.10;;;;;;4324678;33;20124;-69
2022/04/18 07:28:22;;;;;;;5.93;4.50;;;18.20;46.10;;;;;;4324372;33;20076;-70
2022/04/18 07:30:48;;;;;;;8.50;4.80;;;18.20;46.00;;;;;;4324175;33;20105;-70
2022/04/18 07:33:14;;;;;;;6.80;4.80;;;18.20;45.90;;;;;;4332069;33;20511;-70
2022/04/18 07:35:42;;;;;;;8.52;4.93;;;18.20;45.80;;;;;;4331371;33;20212;-70
2022/04/18 07:40:54;;;;;;;6.90;4.70;;;18.30;45.60;;;;;;4326026;33;20430;-70
2022/04/18 07:43:21;;;;;;;6.93;5.00;;;18.30;45.40;;;;;;4324229;33;20117;-70
2022/04/18 07:45:47;;;;;;;7.70;5.25;;;18.30;45.30;;;;;;4324575;33;20104;-74
2022/04/18 07:48:14;;;;;;;6.32;4.38;;;18.30;45.10;;;;;;4310966;33;20076;-76
2022/04/18 07:53:24;;;;;;;7.55;5.13;;;18.40;45.10;;;;;;4338403;33;20294;-70
2022/04/18 07:55:50;;;;;;;7.18;5.03;;;18.40;45.10;;;;;;4338496;33;20064;-71
2022/04/18 07:58:16;;;;;;;10.75;5.15;;;18.40;45.10;;;;;;4338818;33;20247;-70
2022/04/18 08:00:42;;;;;;;6.03;4.55;;;18.40;44.90;;;;;;4338942;33;20199;-69
2022/04/18 08:03:08;;;;;;;7.85;4.70;;;18.40;44.80;;;;;;4325870;33;20069;-69
2022/04/18 08:05:34;;;;;;;7.45;4.85;;;18.50;44.70;;;;;;4324550;33;20844;-70
2022/04/18 08:08:00;;;;;;;9.20;5.93;;;18.50;44.30;;;;;;4324333;33;20077;-71
2022/04/18 08:10:26;;;;;;;7.95;5.50;;;18.50;43.90;;;;;;4311211;33;20136;-70
2022/04/18 08:12:51;;;;;;;9.18;5.25;;;18.50;43.70;;;;;;4324334;33;20178;-70
2022/04/18 08:15:17;;;;;;;7.90;5.03;;;18.50;43.50;;;;;;4324537;33;20091;-70
2022/04/18 08:17:43;;;;;;;9.20;5.75;;;18.50;43.20;;;;;;4324046;33;20072;-70
2022/04/18 08:20:09;;;;;;;10.52;6.03;;;18.50;43.00;;;;;;4324276;33;20085;-70
2022/04/18 08:22:35;;;;;;;9.77;5.50;;;18.60;43.00;;;;;;4327340;33;20103;-70
2022/04/18 08:25:01;;;;;;;11.20;5.20;;;18.60;42.90;;;;;;4314116;33;20511;-70
2022/04/18 08:27:28;;;;;;;6.65;4.90;;;18.60;42.90;;;;;;4327252;33;20172;-70
2022/04/18 08:29:54;;;;;;;9.85;5.60;;;18.70;43.10;;;;;;4327418;33;20116;-70
2022/04/18 08:32:19;;;;;;;11.50;5.85;;;18.70;42.90;;;;;;4327191;33;20189;-70
2022/04/18 08:34:45;;;;;;;8.80;5.60;;;18.70;42.90;;;;;;4327103;33;20069;-70
2022/04/18 08:37:12;;;;;;;6.85;4.93;;;18.70;42.90;;;;;;4327389;33;20531;-70
2022/04/18 08:39:38;;;;;;;7.53;5.28;;;18.70;42.90;;;;;;4326785;33;20252;-70
2022/04/18 08:42:05;;;;;;;7.43;5.07;;;18.70;42.80;;;;;;4326974;33;20065;-70
2022/04/18 08:44:34;;;;;;;6.97;5.07;;;18.80;42.90;;;;;;4326962;33;20061;-70
2022/04/18 08:47:00;;;;;;;8.57;4.85;;;18.80;42.80;;;;;;4326664;33;20064;-70
2022/04/18 08:54:58;;;;;;;6.40;4.43;;;18.90;42.90;;;;;;4326129;33;20061;-70
2022/04/18 08:57:24;;;;;;;7.82;4.97;;;18.90;42.90;;;;;;4325524;33;20135;-70
2022/04/18 08:59:50;;;;;;;8.15;4.40;;;18.90;42.80;;;;;;4324797;33;20085;-70
2022/04/18 09:02:16;;;;;;;6.20;4.38;;;19.00;42.70;;;;;;4326024;33;20272;-70
2022/04/18 09:04:43;;;;;;;6.82;4.60;;;19.00;42.50;;;;;;4326007;33;20073;-70
2022/04/18 09:07:14;;;;;;;8.23;4.28;;;19.00;42.50;;;;;;4313181;33;20108;-70
2022/04/18 09:09:40;;;;;;;9.27;4.40;;;19.00;42.50;;;;;;4313177;33;20103;-70
2022/04/18 09:12:29;;;;;;;5.63;4.20;;;19.00;42.50;;;;;;4325682;33;20095;-70
2022/04/18 09:14:55;;;;;;;5.80;4.55;;;19.10;42.40;;;;;;4325482;33;20168;-70
2022/04/18 09:17:32;;;;;;;8.20;4.60;;;19.10;42.40;;;;;;4325553;33;20477;-70
2022/04/18 09:20:09;;;;;;;6.65;4.18;;;19.10;42.40;;;;;;4323641;33;20242;-70
2022/04/18 09:22:46;;;;;;;9.35;4.57;;;19.10;42.40;;;;;;4323583;33;20061;-70
2022/04/18 09:25:14;;;;;;;8.35;4.53;;;19.10;42.20;;;;;;4326267;33;20546;-70
2022/04/18 09:27:40;;;;;;;7.97;4.60;;;19.10;42.40;;;;;;4325063;33;20097;-71
2022/04/18 09:30:11;;;;;;;13.43;4.30;;;19.20;42.20;;;;;;4326150;33;20204;-71
2022/04/18 09:32:41;;;;;;;7.40;4.43;;;19.20;42.20;;;;;;4325045;33;20208;-70
2022/04/18 09:35:08;;;;;;;6.20;4.10;;;19.20;42.20;;;;;;4312968;33;20120;-70
2022/04/18 09:37:36;;;;;;;7.40;4.32;;;19.20;42.10;;;;;;4325578;33;20072;-71
2022/04/18 09:40:01;;;;;;;9.27;4.50;;;19.30;42.10;;;;;;4325674;33;20084;-70
2022/04/18 09:42:29;;;;;;;9.10;4.50;;;19.30;41.80;;;;;;4325555;33;20172;-70
2022/04/18 09:44:55;;;;;;;8.27;4.82;;;19.30;41.50;;;;;;4324245;33;20116;-70
2022/04/18 09:47:23;;;;;;;7.70;4.60;;;19.30;41.10;;;;;;4325949;33;20194;-70
2022/04/18 09:49:49;;;;;;;6.78;4.63;;;19.30;40.80;;;;;;4325940;33;20081;-69
2022/04/18 09:52:20;;;;;;;5.85;4.47;;;19.30;40.50;;;;;;4326246;33;20226;-69
2022/04/18 09:54:57;;;;;;;6.72;4.43;;;19.30;40.20;;;;;;4326138;33;20112;-70
2022/04/18 09:57:25;;;;;;;8.30;4.60;;;19.40;40.30;;;;;;4326364;33;20506;-70
2022/04/18 09:59:53;;;;;;;8.23;4.25;;;19.40;40.50;;;;;;4325441;33;20076;-70
2022/04/18 10:02:19;;;;;;;6.43;3.95;;;19.40;40.70;;;;;;4320596;33;20077;-70
2022/04/18 10:04:45;;;;;;;7.07;4.13;;;19.40;40.80;;;;;;4340758;33;20100;-69
2022/04/18 10:07:12;;;;;;;8.43;4.50;;;19.40;40.90;;;;;;4340585;33;20379;-69
2022/04/18 10:09:40;;;;;;;7.22;4.40;;;19.40;40.90;;;;;;4340674;33;20092;-69
2022/04/18 10:12:08;;;;;;;8.65;4.35;;;19.40;41.00;;;;;;4340308;33;20081;-70
2022/04/18 10:14:34;;;;;;;6.40;4.32;;;19.40;40.90;;;;;;4340228;33;20131;-70
2022/04/18 10:17:02;;;;;;;5.82;4.50;;;19.50;40.80;;;;;;4340597;33;20602;-70
2022/04/18 10:19:56;;;;;;;5.05;3.85;;;19.50;40.20;;;;;;4340125;33;20115;-69
2022/04/18 10:22:41;;;;;;;5.30;3.70;;;19.50;39.50;;;;;;4340351;33;20541;-70
2022/04/18 10:25:22;;;;;;;4.53;3.40;;;19.50;39.20;;;;;;4326818;33;20254;-70
2022/04/18 10:28:17;;;;;;;5.40;3.70;;;19.50;39.50;;;;;;4339859;33;20100;-70
2022/04/18 10:30:52;;;;;;;5.70;3.33;;;19.50;39.50;;;;;;4335734;33;20150;-70
2022/04/18 10:33:18;;;;;;;6.07;4.13;;;19.50;39.50;;;;;;4326663;33;20092;-70
2022/04/18 10:35:55;;;;;;;5.63;3.60;;;19.50;39.70;;;;;;4326859;33;20260;-70
2022/04/18 10:38:25;;;;;;;7.35;3.55;;;19.50;39.70;;;;;;4327036;33;20088;-70
2022/04/18 10:41:14;;;;;;;4.78;3.40;;;19.50;39.90;;;;;;4339882;33;20100;-70
2022/04/18 10:44:24;;;;;;;4.40;3.00;;;19.50;40.00;;;;;;4339821;33;20077;-70
2022/04/18 10:46:56;;;;;;;4.80;3.10;;;19.50;39.80;;;;;;4337980;33;20482;-69
2022/04/18 10:49:31;;;;;;;5.10;3.42;;;19.50;40.00;;;;;;4340116;33;20097;-70
2022/04/18 10:52:08;;;;;;;4.80;3.30;;;19.50;40.00;;;;;;4340305;33;20648;-70
2022/04/18 10:54:35;;;;;;;4.55;3.13;;;19.50;40.10;;;;;;4340002;33;20411;-70
2022/04/18 10:57:11;;;;;;;5.20;3.08;;;19.60;40.20;;;;;;4326368;33;20100;-70
2022/04/18 10:59:39;;;;;;;6.80;3.25;;;19.60;40.20;;;;;;4339956;33;20120;-70
2022/04/18 11:02:06;;;;;;;7.10;3.33;;;19.60;40.20;;;;;;4332680;33;20139;-71
2022/04/18 11:04:47;;;;;;;3.80;2.70;;;19.60;40.00;;;;;;4325300;33;20100;-72
2022/04/18 11:07:14;;;;;;;4.63;2.65;;;19.60;40.00;;;;;;4311957;33;20073;-69
2022/04/18 11:09:46;;;;;;;6.15;2.78;;;19.60;39.90;;;;;;4324682;33;20238;-70
2022/04/18 11:12:15;;;;;;;5.10;3.17;;;19.60;39.40;;;;;;4299885;33;20172;-69
2022/04/18 11:14:41;;;;;;;7.22;3.08;;;19.60;38.80;;;;;;4324888;33;20529;-69
2022/04/18 11:17:10;;;;;;;3.28;2.70;;;19.60;38.00;;;;;;4324900;33;20112;-70
2022/04/18 11:19:42;;;;;;;5.30;2.58;;;19.60;37.90;;;;;;4311717;33;20085;-70
2022/04/18 11:22:14;;;;;;;5.80;3.10;;;19.60;37.80;;;;;;4324727;33;20069;-70
2022/04/18 11:24:51;;;;;;;4.68;2.80;;;19.60;37.80;;;;;;4325072;33;20085;-70
2022/04/18 11:27:20;;;;;;;4.53;2.50;;;19.70;37.70;;;;;;4324389;33;20138;-70
2022/04/18 11:29:53;;;;;;;6.95;2.53;;;19.70;37.70;;;;;;4310792;33;20116;-76
2022/04/18 11:32:21;;;;;;;4.22;2.63;;;19.70;37.80;;;;;;4324749;33;20084;-77
2022/04/18 11:34:52;;;;;;;5.15;2.47;;;19.70;37.80;;;;;;4323765;33;20186;-76
2022/04/18 11:37:25;;;;;;;3.80;2.55;;;19.70;37.90;;;;;;4310910;33;20084;-77
2022/04/18 11:39:57;;;;;;;3.10;1.92;;;19.70;37.80;;;;;;4323948;33;20238;-77
2022/04/18 11:42:29;;;;;;;4.00;2.50;;;19.70;37.90;;;;;;4323803;33;20503;-76
2022/04/18 11:44:58;;;;;;;5.57;2.00;;;19.70;38.00;;;;;;4323843;33;20084;-76
2022/04/18 11:47:29;;;;;;;4.22;2.58;;;19.70;38.00;;;;;;4324734;33;20105;-76
2022/04/18 11:49:59;;;;;;;2.53;2.00;;;19.70;38.00;;;;;;4324799;33;20089;-74
2022/04/18 11:52:27;;;;;;;4.60;1.98;;;19.70;38.10;;;;;;4324847;33;20215;-76
2022/04/18 11:55:05;;;;;;;3.90;2.45;;;19.70;38.20;;;;;;4311399;33;20081;-77
2022/04/18 11:57:33;;;;;;;4.07;2.38;;;19.70;38.10;;;;;;4324076;33;20147;-77
2022/04/18 11:59:59;;;;;;;4.10;2.50;;;19.70;38.20;;;;;;4324507;33;20165;-77
2022/04/18 12:08:10;;;;;;;4.68;3.08;;;19.70;37.00;;;;;;4324435;33;20207;-77
2022/04/18 12:10:38;;;;;;;4.00;3.00;;;19.80;36.30;;;;;;4324647;33;20234;-76
2022/04/18 12:13:09;;;;;;;16.13;3.45;;;19.70;36.20;;;;;;4324395;33;20396;-77
2022/04/18 12:15:36;;;;;;;5.03;3.08;;;19.70;35.40;;;;;;4324365;33;20176;-76
2022/04/18 12:18:16;;;;;;;4.30;3.05;;;19.80;35.50;;;;;;4324364;33;20076;-76
2022/04/18 12:20:46;;;;;;;4.57;2.95;;;19.80;34.90;;;;;;4324364;33;20214;-77
2022/04/18 12:23:16;;;;;;;4.38;3.13;;;19.80;35.10;;;;;;4324535;33;20097;-77
2022/04/18 12:25:48;;;;;;;4.85;2.90;;;19.80;34.90;;;;;;4311112;33;20192;-69
2022/04/18 12:28:15;;;;;;;6.50;3.30;;;19.80;34.90;;;;;;4324145;33;20085;-69
2022/04/18 12:30:41;;;;;;;4.30;2.70;;;19.80;35.00;;;;;;4323344;33;20226;-65
2022/04/18 12:33:22;;;;;;;4.95;2.53;;;19.80;34.90;;;;;;4324051;33;20295;-70
2022/04/18 12:35:59;;;;;;;6.03;2.65;;;19.80;34.90;;;;;;4324184;33;20422;-70
2022/04/18 12:38:36;;;;;;;4.78;2.58;;;19.80;35.30;;;;;;4324459;33;20085;-71
2022/04/18 12:41:03;;;;;;;6.20;2.42;;;19.80;35.70;;;;;;4324236;33;20144;-69
2022/04/18 12:43:34;;;;;;;6.07;2.53;;;19.80;35.70;;;;;;4324157;33;20069;-69
2022/04/18 12:46:02;;;;;;;3.78;2.50;;;19.80;35.60;;;;;;4323437;33;20092;-70
2022/04/18 12:48:30;;;;;;;4.18;2.35;;;19.80;35.60;;;;;;4324171;33;20677;-69
2022/04/18 12:50:59;;;;;;;3.75;2.40;;;19.80;35.70;;;;;;4324286;33;20143;-69
2022/04/18 12:53:53;;;;;;;6.20;2.60;;;19.80;35.70;;;;;;4324420;33;20084;-69
2022/04/18 12:56:21;;;;;;;3.30;2.38;;;19.80;35.40;;;;;;4324138;33;20091;-70
2022/04/18 12:58:49;;;;;;;8.35;2.63;;;19.80;35.70;;;;;;4324091;33;20105;-70
2022/04/18 13:01:24;;;;;;;3.92;2.40;;;19.80;35.60;;;;;;4324010;33;20093;-69
2022/04/18 13:03:52;;;;;;;5.07;2.25;;;19.80;35.60;;;;;;4324011;33;20168;-69
2022/04/18 13:06:28;;;;;;;3.28;2.53;;;19.90;35.80;;;;;;4324049;33;20637;-69
2022/04/18 13:09:08;;;;;;;3.55;2.60;;;19.90;35.60;;;;;;4326501;33;20100;-69
2022/04/18 13:11:43;;;;;;;5.15;2.40;;;19.90;35.30;;;;;;4326591;33;20495;-69
2022/04/18 13:14:11;;;;;;;4.65;2.60;;;19.90;35.20;;;;;;4326609;33;20222;-70
2022/04/18 13:16:39;;;;;;;3.90;2.03;;;19.90;35.20;;;;;;4326533;33;20235;-69
2022/04/18 13:19:13;;;;;;;4.28;2.20;;;19.90;35.20;;;;;;4326550;33;20438;-69